createdAt,value
2022-09-06T00:00:31.948Z,101301.63
2022-09-06T00:03:01.288Z,101292.13
2022-09-06T00:05:30.477Z,101295.03
2022-09-06T00:08:00.525Z,101290.13
2022-09-06T00:10:29.943Z,101288.44
2022-09-06T00:13:03.530Z,101286.59
2022-09-06T00:15:32.402Z,101292.88
2022-09-06T00:18:01.794Z,101287.81
2022-09-06T00:20:31.144Z,101299.50
2022-09-06T00:23:01.152Z,101294.47
2022-09-06T00:25:30.438Z,101300.00
2022-09-06T00:28:01.693Z,101299.41
2022-09-06T00:30:33.435Z,101297.81
2022-09-06T00:33:02.239Z,101291.94
2022-09-06T00:35:30.962Z,101293.16
2022-09-06T00:37:59.983Z,101293.50
2022-09-06T00:40:29.619Z,101299.16
2022-09-06T00:42:58.491Z,101300.25
2022-09-06T00:45:30.678Z,101288.09
2022-09-06T00:48:02.099Z,101292.88
2022-09-06T00:50:31.099Z,101293.97
2022-09-06T00:53:00.069Z,101289.50
2022-09-06T00:55:28.707Z,101295.03
2022-09-06T00:57:57.453Z,101298.78
2022-09-06T01:00:26.246Z,101288.34
2022-09-06T01:02:55.237Z,101294.47
2022-09-06T01:05:28.759Z,101293.63
2022-09-06T01:08:06.779Z,101294.59
2022-09-06T01:10:50.993Z,101285.69
2022-09-06T01:13:27.734Z,101283.28
2022-09-06T01:16:01.659Z,101282.56
2022-09-06T01:18:41.084Z,101287.94
2022-09-06T01:21:19.762Z,101282.66
2022-09-06T01:24:26.593Z,101284.47
2022-09-06T01:27:20.714Z,101292.66
2022-09-06T01:29:53.340Z,101282.28
2022-09-06T01:32:25.910Z,101288.41
2022-09-06T01:34:57.839Z,101290.22
2022-09-06T01:37:26.621Z,101286.13
2022-09-06T01:39:55.350Z,101288.28
2022-09-06T01:42:25.725Z,101286.84
2022-09-06T01:45:03.647Z,101289.47
2022-09-06T01:47:39.936Z,101285.16
2022-09-06T01:50:36.178Z,101290.44
2022-09-06T01:53:14.427Z,101294.03
2022-09-06T01:55:47.019Z,101301.25
2022-09-06T01:58:40.808Z,101296.31
2022-09-06T02:01:17.583Z,101297.28
2022-09-06T02:03:51.497Z,101287.19
2022-09-06T02:06:26.305Z,101288.97
2022-09-06T02:08:59.801Z,101289.22
2022-09-06T02:11:29.456Z,101293.19
2022-09-06T02:14:00.602Z,101298.97
2022-09-06T02:16:31.892Z,101295.72
2022-09-06T02:19:02.587Z,101296.19
2022-09-06T02:21:33.885Z,101286.78
2022-09-06T02:24:05.046Z,101286.91
2022-09-06T02:26:36.048Z,101288.72
2022-09-06T02:29:05.475Z,101293.38
2022-09-06T02:31:37.551Z,101289.16
2022-09-06T02:34:06.535Z,101288.34
2022-09-06T02:36:37.174Z,101289.53
2022-09-06T02:39:06.977Z,101299.00
2022-09-06T02:41:35.970Z,101292.91
2022-09-06T02:44:04.856Z,101291.81
2022-09-06T02:46:34.727Z,101297.09
2022-09-06T02:49:03.882Z,101298.91
2022-09-06T02:51:33.086Z,101295.06
2022-09-06T02:54:01.827Z,101291.00
2022-09-06T02:56:30.832Z,101291.63
2022-09-06T02:58:59.763Z,101293.09
2022-09-06T03:01:28.284Z,101285.84
2022-09-06T03:03:58.644Z,101297.16
2022-09-06T03:06:27.529Z,101296.31
2022-09-06T03:08:56.452Z,101283.09
2022-09-06T03:11:25.097Z,101280.44
2022-09-06T03:13:53.489Z,101276.94
2022-09-06T03:16:22.696Z,101275.03
2022-09-06T03:18:51.507Z,101275.66
2022-09-06T03:21:21.648Z,101283.47
2022-09-06T03:23:51.090Z,101286.84
2022-09-06T03:26:19.987Z,101279.88
2022-09-06T03:28:48.435Z,101285.38
2022-09-06T03:31:17.197Z,101280.31
2022-09-06T03:33:45.995Z,101287.06
2022-09-06T03:36:15.828Z,101285.72
2022-09-06T03:38:46.283Z,101284.25
2022-09-06T03:41:15.079Z,101290.63
2022-09-06T03:43:43.523Z,101288.81
2022-09-06T03:46:13.701Z,101285.56
2022-09-06T03:48:42.683Z,101280.63
2022-09-06T03:51:11.476Z,101284.97
2022-09-06T03:53:40.261Z,101287.63
2022-09-06T03:56:10.420Z,101284.00
2022-09-06T03:58:38.894Z,101279.31
2022-09-06T04:01:09.832Z,101281.50
2022-09-06T04:03:39.653Z,101274.06
2022-09-06T04:06:10.144Z,101276.13
2022-09-06T04:08:39.436Z,101267.59
2022-09-06T04:11:09.662Z,101263.53
2022-09-06T04:13:38.663Z,101264.84
2022-09-06T04:16:07.993Z,101262.81
2022-09-06T04:18:36.768Z,101271.09
2022-09-06T04:21:05.740Z,101270.78
2022-09-06T04:23:39.682Z,101273.78
2022-09-06T04:26:10.301Z,101276.19
2022-09-06T04:28:38.829Z,101266.06
2022-09-06T04:31:07.589Z,101276.06
2022-09-06T04:33:38.459Z,101274.84
2022-09-06T04:36:09.365Z,101276.28
2022-09-06T04:38:40.325Z,101281.34
2022-09-06T04:41:11.530Z,101276.53
2022-09-06T04:43:41.542Z,101286.88
2022-09-06T04:46:14.130Z,101281.59
2022-09-06T04:48:42.949Z,101284.25
2022-09-06T04:51:13.990Z,101282.03
2022-09-06T04:53:42.840Z,101280.59
2022-09-06T04:56:16.087Z,101279.03
2022-09-06T04:58:44.906Z,101281.88
2022-09-06T05:01:14.238Z,101271.75
2022-09-06T05:03:45.516Z,101279.47
2022-09-06T05:06:19.529Z,101278.38
2022-09-06T05:08:48.980Z,101278.63
2022-09-06T05:11:19.841Z,101279.94
2022-09-06T05:13:50.414Z,101274.06
2022-09-06T05:16:19.452Z,101275.50
2022-09-06T05:18:48.246Z,101280.16
2022-09-06T05:21:17.150Z,101257.69
2022-09-06T05:23:45.918Z,101260.56
2022-09-06T05:26:14.627Z,101255.06
2022-09-06T05:28:44.409Z,101259.09
2022-09-06T05:31:14.401Z,101251.34
2022-09-06T05:33:43.151Z,101247.66
2022-09-06T05:36:12.187Z,101253.19
2022-09-06T05:38:40.995Z,101254.66
2022-09-06T05:41:11.113Z,101259.84
2022-09-06T05:43:39.541Z,101250.13
2022-09-06T05:46:09.926Z,101254.47
2022-09-06T05:48:38.600Z,101266.56
2022-09-06T05:51:09.223Z,101267.72
2022-09-06T05:53:37.920Z,101260.34
2022-09-06T05:56:07.689Z,101263.31
2022-09-06T05:58:36.770Z,101265.97
2022-09-06T06:01:07.375Z,101271.00
2022-09-06T06:03:37.563Z,101256.59
2022-09-06T06:06:06.722Z,101253.50
2022-09-06T06:08:36.353Z,101265.09
2022-09-06T06:11:05.423Z,101250.13
2022-09-06T06:13:39.505Z,101258.19
2022-09-06T06:16:09.763Z,101256.84
2022-09-06T06:18:40.215Z,101254.28
2022-09-06T06:21:10.589Z,101260.38
2022-09-06T06:23:40.019Z,101262.16
2022-09-06T06:26:09.276Z,101268.19
2022-09-06T06:28:38.084Z,101263.84
2022-09-06T06:31:07.674Z,101258.84
2022-09-06T06:33:36.468Z,101256.59
2022-09-06T06:36:08.718Z,101262.66
2022-09-06T06:38:38.967Z,101259.75
2022-09-06T06:41:09.619Z,101250.53
2022-09-06T06:43:38.353Z,101258.66
2022-09-06T06:46:08.524Z,101267.88
2022-09-06T06:48:37.605Z,101269.19
2022-09-06T06:51:07.743Z,101275.94
2022-09-06T06:53:36.817Z,101280.81
2022-09-06T06:56:15.771Z,101270.84
2022-09-06T06:58:44.677Z,101279.06
2022-09-06T07:01:14.025Z,101276.47
2022-09-06T07:03:42.926Z,101281.59
2022-09-06T07:06:13.377Z,101277.34
2022-09-06T07:08:42.889Z,101281.75
2022-09-06T07:11:13.429Z,101273.00
2022-09-06T07:13:42.006Z,101287.06
2022-09-06T07:16:13.606Z,101282.81
2022-09-06T07:18:43.233Z,101278.63
2022-09-06T07:26:39.482Z,101275.00
2022-09-06T07:29:09.265Z,101277.03
2022-09-06T07:34:28.322Z,101272.38
2022-09-06T07:36:58.410Z,101275.28
2022-09-06T07:39:27.235Z,101271.41
2022-09-06T07:41:56.043Z,101259.56
2022-09-06T07:44:25.296Z,101268.91
2022-09-06T07:46:54.234Z,101268.63
2022-09-06T07:49:23.076Z,101269.13
2022-09-06T07:51:51.752Z,101272.97
2022-09-06T07:54:31.236Z,101268.00
2022-09-06T07:57:00.135Z,101271.88
2022-09-06T07:59:28.882Z,101276.19
2022-09-06T08:01:57.578Z,101276.38
2022-09-06T08:04:26.160Z,101274.19
2022-09-06T08:09:47.823Z,101266.25
2022-09-06T08:12:16.615Z,101268.47
2022-09-06T08:14:45.378Z,101267.31
2022-09-06T08:17:14.337Z,101264.16
2022-09-06T08:19:42.776Z,101257.81
2022-09-06T08:22:11.534Z,101262.94
2022-09-06T08:24:41.617Z,101263.22
2022-09-06T08:27:12.071Z,101263.88
2022-09-06T08:29:41.293Z,101268.47
2022-09-06T08:32:11.236Z,101267.13
2022-09-06T08:34:39.839Z,101256.31
2022-09-06T08:37:08.702Z,101264.56
2022-09-06T08:39:37.675Z,101272.03
2022-09-06T08:42:07.785Z,101262.78
2022-09-06T08:44:55.994Z,101260.34
2022-09-06T08:47:25.995Z,101257.44
2022-09-06T08:49:56.841Z,101250.16
2022-09-06T08:53:00.149Z,101244.81
2022-09-06T08:55:38.907Z,101243.38
2022-09-06T08:58:21.472Z,101241.94
2022-09-06T09:00:58.598Z,101230.44
2022-09-06T09:03:32.970Z,101235.84
2022-09-06T09:06:05.489Z,101237.06
2022-09-06T09:08:41.122Z,101232.34
2022-09-06T09:11:11.858Z,101234.59
2022-09-06T09:13:53.812Z,101228.38
2022-09-06T09:16:25.742Z,101220.78
2022-09-06T09:18:56.936Z,101218.50
2022-09-06T09:21:30.374Z,101219.75
2022-09-06T09:24:03.231Z,101221.56
2022-09-06T09:26:36.962Z,101208.56
2022-09-06T09:29:07.679Z,101218.06
2022-09-06T09:31:40.532Z,101210.69
2022-09-06T09:34:13.090Z,101218.25
2022-09-06T09:39:36.360Z,101199.47
2022-09-06T09:42:05.317Z,101204.84
2022-09-06T09:44:34.704Z,101205.88
2022-09-06T09:47:16.092Z,101200.41
2022-09-06T09:49:44.793Z,101200.28
2022-09-06T09:52:15.064Z,101205.41
2022-09-06T09:54:45.997Z,101197.72
2022-09-06T09:57:20.150Z,101178.56
2022-09-06T09:59:52.064Z,101184.59
2022-09-06T10:02:26.197Z,101176.38
2022-09-06T10:05:03.386Z,101171.50
2022-09-06T10:07:35.929Z,101168.81
2022-09-06T10:10:06.108Z,101173.81
2022-09-06T10:12:36.458Z,101158.63
2022-09-06T10:15:07.365Z,101165.06
2022-09-06T10:17:39.779Z,101155.31
2022-09-06T10:20:11.164Z,101149.91
2022-09-06T10:22:48.626Z,101145.44
2022-09-06T10:25:33.568Z,101139.75
2022-09-06T10:28:30.708Z,101149.94
2022-09-06T10:31:33.536Z,101141.72
2022-09-06T10:34:18.084Z,101136.09
2022-09-06T10:36:51.579Z,101132.34
2022-09-06T10:39:31.778Z,101139.44
2022-09-06T10:42:10.436Z,101145.09
2022-09-06T10:44:51.294Z,101135.81
2022-09-06T10:47:20.361Z,101129.50
2022-09-06T10:49:54.415Z,101131.13
2022-09-06T10:52:27.768Z,101136.13
2022-09-06T10:54:57.446Z,101144.03
2022-09-06T11:00:44.868Z,101126.16
2022-09-06T11:06:20.040Z,101125.59
2022-09-06T11:08:57.750Z,101115.44
2022-09-06T11:11:35.703Z,101107.00
2022-09-06T11:14:07.480Z,101119.97
2022-09-06T11:16:42.154Z,101118.03
2022-09-06T11:19:14.377Z,101098.06
2022-09-06T11:21:56.504Z,101092.78
2022-09-06T11:24:36.056Z,101091.19
2022-09-06T11:27:07.261Z,101097.78
2022-09-06T11:29:37.070Z,101095.22
2022-09-06T11:32:28.498Z,101084.91
2022-09-06T11:35:01.964Z,101090.81
2022-09-06T11:37:35.104Z,101096.06
2022-09-06T11:43:12.416Z,101077.41
2022-09-06T11:45:44.080Z,101080.38
2022-09-06T11:48:35.197Z,101075.38
2022-09-06T11:51:07.905Z,101066.16
2022-09-06T11:54:08.207Z,101059.16
2022-09-06T11:56:41.256Z,101055.81
2022-09-06T11:59:14.727Z,101049.44
2022-09-06T12:01:43.214Z,101051.34
2022-09-06T12:04:14.339Z,101052.84
2022-09-06T12:06:44.328Z,101054.03
2022-09-06T12:09:34.580Z,101044.28
2022-09-06T12:12:05.148Z,101038.28
2022-09-06T12:14:40.048Z,101033.38
2022-09-06T12:17:23.656Z,101033.19
2022-09-06T12:19:53.483Z,101030.38
2022-09-06T12:22:54.232Z,101037.81
2022-09-06T12:25:53.200Z,101034.75
2022-09-06T12:28:24.094Z,101032.00
2022-09-06T12:30:53.177Z,101035.44
2022-09-06T12:33:26.970Z,101028.44
2022-09-06T12:36:14.471Z,101019.91
2022-09-06T12:38:55.445Z,101013.81
2022-09-06T12:41:26.680Z,101010.31
2022-09-06T12:43:58.373Z,101005.75
2022-09-06T12:46:27.868Z,101013.31
2022-09-06T12:49:08.108Z,101006.59
2022-09-06T12:51:37.633Z,101003.16
2022-09-06T12:54:07.792Z,101001.66
2022-09-06T12:56:38.027Z,101002.09
2022-09-06T12:59:19.682Z,101002.88
2022-09-06T13:01:53.247Z,101009.25
2022-09-06T13:04:28.369Z,101000.28
2022-09-06T13:06:58.271Z,101007.03
2022-09-06T13:09:28.745Z,100995.81
2022-09-06T13:12:05.369Z,101025.22
2022-09-06T13:14:34.845Z,101008.09
2022-09-06T13:17:03.623Z,101020.59
2022-09-06T13:19:34.984Z,101016.13
2022-09-06T13:22:05.590Z,101012.53
2022-09-06T13:24:47.283Z,101016.34
2022-09-06T13:27:28.918Z,101011.94
2022-09-06T13:29:59.028Z,101009.28
2022-09-06T13:32:28.601Z,101005.34
2022-09-06T13:34:59.194Z,101002.63
2022-09-06T13:37:29.254Z,101006.19
2022-09-06T13:39:58.886Z,100998.81
2022-09-06T13:42:33.292Z,101001.78
2022-09-06T13:45:30.129Z,101001.38
2022-09-06T13:48:13.072Z,100991.13
2022-09-06T13:50:47.885Z,100988.84
2022-09-06T13:53:21.049Z,100991.28
2022-09-06T13:55:49.641Z,101004.31
2022-09-06T13:58:20.017Z,101010.47
2022-09-06T14:00:49.040Z,101006.38
2022-09-06T14:03:23.055Z,100996.66
2022-09-06T14:05:52.027Z,100991.25
2022-09-06T14:08:21.382Z,100977.31
2022-09-06T14:10:50.241Z,100981.31
2022-09-06T14:13:21.667Z,100971.09
2022-09-06T14:15:51.539Z,100963.75
2022-09-06T14:18:20.471Z,100975.13
2022-09-06T14:20:54.877Z,100975.44
2022-09-06T14:23:24.136Z,100975.03
2022-09-06T14:25:57.019Z,100975.19
2022-09-06T14:28:28.140Z,100964.47
2022-09-06T14:30:56.961Z,100966.31
2022-09-06T14:33:26.115Z,100964.94
2022-09-06T14:35:55.204Z,100962.50
2022-09-06T14:38:24.133Z,100959.59
2022-09-06T14:40:52.939Z,100968.53
2022-09-06T14:43:21.986Z,100974.44
2022-09-06T14:45:52.458Z,100973.50
2022-09-06T14:48:21.205Z,100962.06
2022-09-06T14:50:49.954Z,100965.25
2022-09-06T14:53:38.876Z,100958.66
2022-09-06T14:56:08.263Z,100961.34
2022-09-06T14:58:37.645Z,100951.38
2022-09-06T15:01:14.957Z,100949.91
2022-09-06T15:03:46.867Z,100943.91
2022-09-06T15:06:16.533Z,100934.66
2022-09-06T15:08:45.625Z,100929.53
2022-09-06T15:11:14.422Z,100916.97
2022-09-06T15:13:43.414Z,100923.53
2022-09-06T15:16:13.664Z,100926.53
2022-09-06T15:18:42.493Z,100918.31
2022-09-06T15:21:13.203Z,100916.00
2022-09-06T15:23:43.166Z,100917.78
2022-09-06T15:26:13.746Z,100921.50
2022-09-06T15:28:43.751Z,100913.66
2022-09-06T15:31:15.343Z,100924.38
2022-09-06T15:33:44.189Z,100924.13
2022-09-06T15:36:14.016Z,100921.34
2022-09-06T15:38:44.327Z,100925.22
2022-09-06T15:41:15.010Z,100919.59
2022-09-06T15:43:47.650Z,100919.09
2022-09-06T15:46:21.190Z,100922.72
2022-09-06T15:48:53.638Z,100919.81
2022-09-06T15:51:22.465Z,100915.66
2022-09-06T15:53:51.267Z,100900.44
2022-09-06T15:56:20.321Z,100904.06
2022-09-06T15:58:48.867Z,100907.56
2022-09-06T16:01:20.611Z,100897.38
2022-09-06T16:03:50.862Z,100889.25
2022-09-06T16:08:59.839Z,100889.97
2022-09-06T16:11:30.250Z,100883.38
2022-09-06T16:13:59.080Z,100895.75
2022-09-06T16:16:29.463Z,100889.28
2022-09-06T16:18:58.701Z,100889.03
2022-09-06T16:21:30.476Z,100888.63
2022-09-06T16:24:00.790Z,100885.84
2022-09-06T16:26:32.246Z,100883.25
2022-09-06T16:29:02.209Z,100894.78
2022-09-06T16:31:39.185Z,100894.69
2022-09-06T16:34:09.200Z,100899.41
2022-09-06T16:36:38.449Z,100901.34
2022-09-06T16:39:08.096Z,100899.41
2022-09-06T16:41:40.723Z,100884.53
2022-09-06T16:44:10.370Z,100889.66
2022-09-06T16:46:41.832Z,100891.19
2022-09-06T16:49:10.855Z,100898.72
2022-09-06T16:51:39.797Z,100896.72
2022-09-06T16:54:08.509Z,100904.97
2022-09-06T16:56:37.150Z,100898.16
2022-09-06T16:59:07.282Z,100905.41
2022-09-06T17:01:36.839Z,100906.47
2022-09-06T17:04:07.580Z,100898.97
2022-09-06T17:06:42.282Z,100896.66
2022-09-06T17:09:11.499Z,100900.56
2022-09-06T17:11:41.549Z,100905.63
2022-09-06T17:14:10.518Z,100903.63
2022-09-06T17:16:56.427Z,100898.13
2022-09-06T17:19:26.965Z,100901.84
2022-09-06T17:21:55.844Z,100900.34
2022-09-06T17:24:24.892Z,100898.38
2022-09-06T17:26:53.641Z,100906.72
2022-09-06T17:29:22.913Z,100905.91
2022-09-06T17:31:51.537Z,100909.06
2022-09-06T17:34:20.486Z,100910.03
2022-09-06T17:36:50.726Z,100920.56
2022-09-06T17:39:21.746Z,100919.72
2022-09-06T17:41:52.327Z,100919.03
2022-09-06T17:44:22.799Z,100919.22
2022-09-06T17:47:11.427Z,100922.69
2022-09-06T17:49:40.249Z,100919.69
2022-09-06T17:52:10.477Z,100921.31
2022-09-06T17:54:39.190Z,100918.97
2022-09-06T17:57:07.863Z,100920.97
2022-09-06T17:59:36.595Z,100933.28
2022-09-06T18:02:05.548Z,100932.25
2022-09-06T18:04:34.337Z,100928.41
2022-09-06T18:07:03.279Z,100933.22
2022-09-06T18:09:33.378Z,100932.19
2022-09-06T18:12:02.068Z,100934.47
2022-09-06T18:14:31.089Z,100930.78
2022-09-06T18:16:59.959Z,100933.38
2022-09-06T18:19:28.683Z,100927.69
2022-09-06T18:21:57.865Z,100927.31
2022-09-06T18:24:27.248Z,100932.97
2022-09-06T18:26:57.394Z,100924.94
2022-09-06T18:29:26.153Z,100933.56
2022-09-06T18:31:55.082Z,100934.03
2022-09-06T18:34:23.958Z,100931.47
2022-09-06T18:36:53.003Z,100937.03
2022-09-06T18:39:21.786Z,100941.31
2022-09-06T18:42:07.089Z,100942.03
2022-09-06T18:44:37.555Z,100938.88
2022-09-06T18:47:07.313Z,100941.16
2022-09-06T18:49:38.524Z,100933.16
2022-09-06T18:52:09.291Z,100939.94
2022-09-06T18:54:38.091Z,100939.41
2022-09-06T18:57:06.869Z,100942.38
2022-09-06T18:59:37.051Z,100945.31
2022-09-06T19:02:05.760Z,100937.81
2022-09-06T19:04:34.173Z,100941.06
2022-09-06T19:07:04.012Z,100940.84
2022-09-06T19:09:32.717Z,100939.19
2022-09-06T19:12:01.437Z,100933.06
2022-09-06T19:14:30.177Z,100938.84
2022-09-06T19:17:00.341Z,100935.94
2022-09-06T19:19:29.865Z,100939.91
2022-09-06T19:21:58.669Z,100939.97
2022-09-06T19:24:27.539Z,100934.22
2022-09-06T19:26:56.423Z,100935.22
2022-09-06T19:29:25.106Z,100934.81
2022-09-06T19:31:54.589Z,100930.03
2022-09-06T19:34:24.960Z,100937.91
2022-09-06T19:36:55.465Z,100935.31
2022-09-06T19:39:36.193Z,100930.97
2022-09-06T19:42:06.468Z,100938.03
2022-09-06T19:44:35.201Z,100928.56
2022-09-06T19:47:04.383Z,100928.22
2022-09-06T19:49:34.198Z,100924.06
2022-09-06T19:52:09.573Z,100930.13
2022-09-06T19:54:38.466Z,100931.09
2022-09-06T19:57:07.388Z,100926.78
2022-09-06T19:59:37.042Z,100928.78
2022-09-06T20:02:05.807Z,100925.03
2022-09-06T20:04:35.644Z,100917.34
2022-09-06T20:07:04.392Z,100920.13
2022-09-06T20:09:33.388Z,100921.41
2022-09-06T20:12:02.371Z,100920.59
2022-09-06T20:14:31.380Z,100912.22
2022-09-06T20:17:22.743Z,100920.47
2022-09-06T20:19:50.483Z,100917.59
2022-09-06T20:22:19.205Z,100921.91
2022-09-06T20:24:48.023Z,100918.75
2022-09-06T20:27:16.748Z,100922.78
2022-09-06T20:29:45.497Z,100926.16
2022-09-06T20:32:14.687Z,100919.91
2022-09-06T20:34:43.210Z,100920.88
2022-09-06T20:37:13.245Z,100916.53
2022-09-06T20:39:41.974Z,100908.03
2022-09-06T20:42:10.741Z,100921.84
2022-09-06T20:44:39.492Z,100916.28
2022-09-06T20:47:08.313Z,100921.72
2022-09-06T20:49:36.744Z,100923.66
2022-09-06T20:52:05.381Z,100920.31
2022-09-06T20:54:35.834Z,100919.22
2022-09-06T20:57:04.374Z,100921.84
2022-09-06T20:59:33.080Z,100918.19
2022-09-06T21:02:02.518Z,100908.72
2022-09-06T21:04:32.114Z,100916.78
2022-09-06T21:07:01.213Z,100921.38
2022-09-06T21:09:29.938Z,100912.88
2022-09-06T21:12:00.122Z,100917.91
2022-09-06T21:14:28.966Z,100916.50
2022-09-06T21:16:57.737Z,100916.78
2022-09-06T21:19:26.585Z,100917.47
2022-09-06T21:21:55.272Z,100915.09
2022-09-06T21:24:24.104Z,100913.69
2022-09-06T21:26:53.276Z,100912.41
2022-09-06T21:29:23.536Z,100912.22
2022-09-06T21:31:51.981Z,100919.16
2022-09-06T21:34:20.730Z,100918.56
2022-09-06T21:36:49.543Z,100909.31
2022-09-06T21:39:18.533Z,100910.25
2022-09-06T21:41:48.040Z,100903.94
2022-09-06T21:44:16.726Z,100891.38
2022-09-06T21:46:46.773Z,100903.91
2022-09-06T21:49:15.542Z,100903.63
2022-09-06T21:51:44.407Z,100899.84
2022-09-06T21:54:13.016Z,100894.09
2022-09-06T21:56:41.899Z,100905.13
2022-09-06T21:59:11.016Z,100895.81
2022-09-06T22:01:40.447Z,100903.75
2022-09-06T22:04:10.840Z,100908.22
2022-09-06T22:06:40.669Z,100900.53
2022-09-06T22:09:14.598Z,100902.34
2022-09-06T22:11:44.771Z,100900.22
2022-09-06T22:14:15.657Z,100893.44
2022-09-06T22:16:44.110Z,100898.44
2022-09-06T22:19:14.474Z,100899.75
2022-09-06T22:21:43.374Z,100901.00
2022-09-06T22:24:14.370Z,100902.94
2022-09-06T22:26:43.518Z,100897.00
2022-09-06T22:29:13.608Z,100897.63
2022-09-06T22:31:42.620Z,100903.69
2022-09-06T22:34:11.805Z,100898.41
2022-09-06T22:36:42.282Z,100895.84
2022-09-06T22:39:10.851Z,100900.81
2022-09-06T22:41:39.915Z,100905.16
2022-09-06T22:44:08.807Z,100903.00
2022-09-06T22:46:38.407Z,100905.31
2022-09-06T22:49:07.324Z,100897.16
2022-09-06T22:51:36.228Z,100905.59
2022-09-06T22:54:06.745Z,100901.16
2022-09-06T22:56:35.896Z,100905.13
2022-09-06T22:59:04.923Z,100902.22
2022-09-06T23:01:38.750Z,100890.59
2022-09-06T23:04:08.162Z,100887.47
2022-09-06T23:06:37.638Z,100894.34
2022-09-06T23:09:08.033Z,100896.28
2022-09-06T23:11:36.806Z,100894.69
2022-09-06T23:14:06.211Z,100898.19
2022-09-06T23:16:34.837Z,100893.75
2022-09-06T23:19:03.734Z,100896.59
2022-09-06T23:21:33.034Z,100895.16
2022-09-06T23:24:01.923Z,100893.72
2022-09-06T23:26:33.479Z,100890.97
2022-09-06T23:29:02.483Z,100892.19
2022-09-06T23:31:32.729Z,100894.81
2022-09-06T23:34:02.639Z,100898.44
2022-09-06T23:36:32.030Z,100894.59
2022-09-06T23:39:02.227Z,100893.66
2022-09-06T23:41:32.634Z,100892.69
2022-09-06T23:44:02.160Z,100886.09
2022-09-06T23:46:31.173Z,100891.13
2022-09-06T23:49:00.098Z,100889.91
2022-09-06T23:51:29.292Z,100882.47
2022-09-06T23:53:58.433Z,100882.84
2022-09-06T23:56:27.303Z,100880.28
2022-09-06T23:58:57.265Z,100877.16
